Jacksonville, FL (32227)

5:14 PM EST on February 13, 2016 (GMT -0500)
Atlantic Beach/Mayport | | Change Station
CLOSE
Current Station
Personal Weather Station
Location: Atlantic Beach, FL
Elevation: 13 ft
Nearby Weather Stations

Elev 13 ft 30.37 °N, 81.41 °W | Updated 2 seconds ago

Clear
Clear
51.7 °F
Feels Like 51.7 °F
N
3.0
Wind Variable Wind from NNE
Gusts 5.0 mph

Today
High -- | Low -- °F
--% Chance of Precip.
Yesterday
High -- | Low -- °F
Precip. -- in
Pressure 30.25 in
Visibility 10.0 miles
Clouds Clear
Dew Point 40 °F
Humidity 64%
Rainfall 0.00 in
Snow Depth Not available.
7:08 AM 6:11 PM
Waxing Crescent, 34% visible
METAR KNRB 132152Z AUTO 04009KT 10SM CLR 11/02 A3025 RMK AO2 SLP243 T01110017 $
Pressure 30.25 in
Visibility 10.0 miles
Clouds Clear
Dew Point 40 °F
Humidity 64%
Rainfall 0.00 in
Snow Depth Not available.
7:08 AM 6:11 PM
Waxing Crescent, 34% visible
METAR KNRB 132152Z AUTO 04009KT 10SM CLR 11/02 A3025 RMK AO2 SLP243 T01110017 $

10-Day Weather Forecast

Almanac

Astronomy

Feb. 13, 2016 Rise Set
Actual Time
Civil Twilight
Nautical Twilight
Astronomical Twilight
Moon
Length of Visible Light
Length of Day
Tomorrow will be .
, % of the Moon is Illuminated

Today's Extremes

State Highs State Lows

Community

WunderPhotos

Upload Photos

1,892,687 photos uploaded!

WunderBlog® & News

Nearby

Air Quality

  Air Quality AQ Index Pollutant
Not available.

Snow Depth

Station Depth Elevation

Earthquake Activity

City Distance Mag. Time & Date
Minimum magnitude displayed is 2.5.

Coastal Water Temperatures

Place Temperature

Stations

Nearby Weather Stations

Station Location Temp. Windchill Dew Point Humidity Wind Precip. Elev Updated Type
                   

Watches & Warnings

There are currently no watches in effect.